Long Creek, South Carolina
Current Conditions -  °F | °C
As of 3:35 PM on Tuesday 21 Oct 2014 (Local Time) from KTOC Reporting Station
Clear Clear  
Wind Chill: 74°   Ceiling: Unl
Heat Index: 74°   Visibility: 10mi
Dew Point: 43°   Wind: 13mph
Humidity: 33%   Direction: 260°W
Pressure: 29.91"   Gusts: 16mph
Location:  34.71°N, 83.14°W
Report Text: KTOC 211935Z AUTO 26011G14KT 10SM CLR 23/06 A2991 RMK AO2 T02320062
Loading
Personal Weather Stations






























Interactive Weather Map
Tropical Storm Tracking
New forecast layout! Learn more

10-Day Weather Forecast

Advertisements
Track Severe Weather on mobile